Time;durP1;ratioP1;P1;durP2;ratioP2;P2;SDS_P1;SDS_P2;PMS_P1;PMS_P2;Temp;Humidity;BMP_temperature;BMP_pressure;BME280_temperature;BME280_humidity;BME280_pressure;Samples;Min_cycle;Max_cycle;Signal;HPM_P1;HPM_P2
2023/04/21 00:02:09;;;;;;;43.83;21.30;;;3.90;99.90;;;;;;5030968;28;20056;-76
2023/04/21 00:04:35;;;;;;;31.98;17.17;;;3.90;99.90;;;;;;5032113;28;20459;-76
2023/04/21 00:07:03;;;;;;;32.25;17.63;;;3.90;99.90;;;;;;5024631;28;20048;-76
2023/04/21 00:09:29;;;;;;;30.35;16.42;;;3.80;99.90;;;;;;5025789;28;20057;-76
2023/04/21 00:11:55;;;;;;;26.85;15.32;;;3.50;99.90;;;;;;5027015;28;20044;-77
2023/04/21 00:14:21;;;;;;;28.08;14.85;;;3.50;99.90;;;;;;5031821;28;20029;-75
2023/04/21 00:16:51;;;;;;;29.52;16.65;;;3.60;99.90;;;;;;5033717;28;20030;-75
2023/04/21 00:19:18;;;;;;;24.95;15.73;;;3.50;99.90;;;;;;5032498;28;20038;-76
2023/04/21 00:21:45;;;;;;;24.95;15.35;;;3.40;99.90;;;;;;5032154;28;20040;-75
2023/04/21 00:24:11;;;;;;;37.53;18.33;;;3.40;99.90;;;;;;5032492;28;20029;-76
2023/04/21 00:26:37;;;;;;;29.77;15.77;;;3.40;99.90;;;;;;5033244;28;20041;-76
2023/04/21 00:29:04;;;;;;;28.73;15.13;;;3.30;99.90;;;;;;5032607;28;20351;-76
2023/04/21 00:31:30;;;;;;;26.42;14.30;;;3.20;99.90;;;;;;5032328;28;20048;-77
2023/04/21 00:33:57;;;;;;;26.08;14.88;;;3.10;99.90;;;;;;5021145;28;20797;-77
2023/04/21 00:36:23;;;;;;;25.42;15.50;;;3.20;99.90;;;;;;5028863;28;20045;-75
2023/04/21 00:38:50;;;;;;;29.13;15.00;;;3.30;99.90;;;;;;5032600;28;20485;-75
2023/04/21 00:41:16;;;;;;;25.88;14.63;;;3.20;99.90;;;;;;5029874;28;20041;-75
2023/04/21 00:44:05;;;;;;;26.27;14.98;;;3.10;99.90;;;;;;5030099;28;20061;-75
2023/04/21 00:46:32;;;;;;;28.27;14.70;;;3.20;99.90;;;;;;5036677;28;20427;-75
2023/04/21 00:48:59;;;;;;;21.17;13.63;;;3.20;99.90;;;;;;5030917;28;20049;-77
2023/04/21 00:51:27;;;;;;;30.75;16.08;;;3.20;99.90;;;;;;5027668;28;20046;-75
2023/04/21 00:53:55;;;;;;;31.33;16.25;;;3.20;99.90;;;;;;5031565;28;20045;-75
2023/04/21 00:56:21;;;;;;;28.77;15.07;;;3.10;99.90;;;;;;5038798;28;20055;-75
2023/04/21 00:58:49;;;;;;;28.20;15.77;;;3.00;99.90;;;;;;5032662;28;20033;-75
2023/04/21 01:01:16;;;;;;;25.63;14.60;;;2.90;99.90;;;;;;5031560;28;20032;-75
2023/04/21 01:03:46;;;;;;;23.83;13.73;;;2.90;99.90;;;;;;5029706;28;20037;-75
2023/04/21 01:06:12;;;;;;;24.40;14.63;;;2.90;99.90;;;;;;5030036;28;20060;-76
2023/04/21 01:08:39;;;;;;;25.85;13.38;;;2.80;99.90;;;;;;5030392;28;20482;-75
2023/04/21 01:11:09;;;;;;;24.00;13.93;;;2.70;99.90;;;;;;5031087;28;20037;-75
2023/04/21 01:13:36;;;;;;;22.67;13.05;;;2.70;99.90;;;;;;5030770;28;20036;-76
2023/04/21 01:16:02;;;;;;;24.75;14.32;;;2.60;99.90;;;;;;5030139;28;20025;-76
2023/04/21 01:18:29;;;;;;;26.77;14.27;;;2.60;99.90;;;;;;5031261;28;20041;-75
2023/04/21 01:20:57;;;;;;;24.92;15.35;;;2.70;99.90;;;;;;5031197;28;20445;-75
2023/04/21 01:23:23;;;;;;;27.95;15.65;;;2.70;99.90;;;;;;5027727;28;20041;-77
2023/04/21 01:25:52;;;;;;;27.52;15.82;;;2.60;99.90;;;;;;5038703;28;20037;-76
2023/04/21 01:28:22;;;;;;;29.65;15.50;;;2.60;99.90;;;;;;5031345;28;20620;-76
2023/04/21 01:30:49;;;;;;;26.37;14.80;;;2.50;99.90;;;;;;5031972;28;20033;-76
2023/04/21 01:33:15;;;;;;;31.98;15.63;;;2.50;99.90;;;;;;5030099;28;20283;-76
2023/04/21 01:35:42;;;;;;;27.33;16.05;;;2.60;99.90;;;;;;5017618;28;20482;-76
2023/04/21 01:38:09;;;;;;;25.85;14.45;;;2.60;99.90;;;;;;5025492;28;20049;-76
2023/04/21 01:40:36;;;;;;;26.20;15.52;;;2.50;99.90;;;;;;5027441;28;20487;-75
2023/04/21 01:43:03;;;;;;;28.67;15.82;;;2.50;99.90;;;;;;5030382;28;20136;-77
2023/04/21 01:45:30;;;;;;;26.30;14.80;;;2.40;99.90;;;;;;5022953;28;20403;-75
2023/04/21 01:47:57;;;;;;;30.73;17.10;;;2.50;99.90;;;;;;5031030;28;20446;-75
2023/04/21 01:50:23;;;;;;;31.45;17.17;;;2.50;99.90;;;;;;5030199;28;20882;-75
2023/04/21 01:52:49;;;;;;;29.58;15.80;;;2.40;99.90;;;;;;5030893;28;20030;-75
2023/04/21 01:55:15;;;;;;;31.08;15.48;;;2.40;99.90;;;;;;5040010;28;20048;-75
2023/04/21 01:57:41;;;;;;;32.13;16.52;;;2.40;99.90;;;;;;5030557;28;20025;-76
2023/04/21 02:00:08;;;;;;;28.33;14.65;;;2.40;99.90;;;;;;5041242;28;20053;-75
2023/04/21 02:02:41;;;;;;;36.65;17.27;;;2.50;99.90;;;;;;5034667;28;20040;-75
2023/04/21 02:05:07;;;;;;;30.02;16.63;;;2.50;99.90;;;;;;5028856;28;20033;-76
2023/04/21 02:07:33;;;;;;;30.88;17.73;;;2.40;99.90;;;;;;5031421;28;20033;-75
2023/04/21 02:09:59;;;;;;;30.10;16.90;;;2.40;99.90;;;;;;5025111;28;20056;-75
2023/04/21 02:12:26;;;;;;;30.48;16.77;;;2.30;99.90;;;;;;5038320;28;20045;-75
2023/04/21 02:14:52;;;;;;;33.55;15.55;;;2.20;99.90;;;;;;5023419;28;20049;-75
2023/04/21 02:17:18;;;;;;;32.55;15.70;;;2.20;99.90;;;;;;5028170;28;20041;-76
2023/04/21 02:19:46;;;;;;;31.00;15.93;;;2.20;99.90;;;;;;5030559;28;20045;-75
2023/04/21 02:22:13;;;;;;;28.05;15.13;;;2.20;99.90;;;;;;5037178;28;20395;-75
2023/04/21 02:24:40;;;;;;;29.67;17.63;;;2.10;99.90;;;;;;5025991;28;20033;-75
2023/04/21 02:27:06;;;;;;;36.05;16.92;;;2.10;99.90;;;;;;5025874;28;20156;-76
2023/04/21 02:29:32;;;;;;;29.58;14.98;;;2.00;99.90;;;;;;5041582;28;20046;-75
2023/04/21 02:31:58;;;;;;;30.77;16.15;;;2.00;99.90;;;;;;5038016;28;20482;-75
2023/04/21 02:34:25;;;;;;;33.33;16.23;;;2.00;99.90;;;;;;5025796;28;20879;-75
2023/04/21 02:36:51;;;;;;;31.67;15.60;;;2.00;99.90;;;;;;5029304;28;20049;-75
2023/04/21 02:39:18;;;;;;;34.28;15.68;;;1.90;99.90;;;;;;5028211;28;20046;-75
2023/04/21 02:41:44;;;;;;;32.15;15.57;;;2.00;99.90;;;;;;5029091;28;20483;-75
2023/04/21 02:44:11;;;;;;;27.85;15.57;;;1.90;99.90;;;;;;5022441;28;20045;-75
2023/04/21 02:46:40;;;;;;;31.38;14.05;;;1.90;99.90;;;;;;5028743;28;20033;-75
2023/04/21 02:49:07;;;;;;;28.95;15.27;;;1.80;99.90;;;;;;5029595;28;20029;-76
2023/04/21 02:51:35;;;;;;;32.45;15.23;;;1.80;99.90;;;;;;5027474;28;20056;-75
2023/04/21 02:54:01;;;;;;;31.70;16.00;;;1.80;99.90;;;;;;5022287;28;20052;-75
2023/04/21 02:56:28;;;;;;;31.45;16.80;;;1.80;99.90;;;;;;5026476;28;20044;-75
2023/04/21 02:58:54;;;;;;;30.23;14.95;;;1.70;99.90;;;;;;5030201;28;20474;-75
2023/04/21 03:01:20;;;;;;;28.90;15.55;;;1.60;99.90;;;;;;5035931;28;20041;-75
2023/04/21 03:03:46;;;;;;;30.50;17.42;;;1.60;99.90;;;;;;5028637;28;20033;-75
2023/04/21 03:06:13;;;;;;;35.75;17.77;;;1.60;99.90;;;;;;5035543;28;20458;-75
2023/04/21 03:08:39;;;;;;;34.55;16.80;;;1.60;99.90;;;;;;5016481;28;20048;-75
2023/04/21 03:11:05;;;;;;;31.02;15.52;;;1.60;99.90;;;;;;5018005;28;20053;-78
2023/04/21 03:13:31;;;;;;;33.20;16.38;;;1.60;99.90;;;;;;5014098;28;20034;-77
2023/04/21 03:15:57;;;;;;;30.52;17.52;;;1.60;99.90;;;;;;5030403;28;20459;-75
2023/04/21 03:18:24;;;;;;;32.97;17.52;;;1.60;99.90;;;;;;5029472;28;20033;-75
2023/04/21 03:20:50;;;;;;;32.75;16.98;;;1.60;99.90;;;;;;5027307;28;20041;-75
2023/04/21 03:23:16;;;;;;;44.70;17.17;;;1.60;99.90;;;;;;5017834;28;20050;-75
2023/04/21 03:25:42;;;;;;;38.55;17.27;;;1.50;99.90;;;;;;5030010;28;20026;-76
2023/04/21 03:28:09;;;;;;;38.60;18.05;;;1.60;99.90;;;;;;5028861;28;20029;-76
2023/04/21 03:30:35;;;;;;;43.63;19.25;;;1.60;99.90;;;;;;5041121;28;20046;-75
2023/04/21 03:33:02;;;;;;;49.22;20.88;;;1.80;99.90;;;;;;5029738;28;20056;-77
2023/04/21 03:35:29;;;;;;;63.97;22.23;;;1.80;99.90;;;;;;5023565;28;20493;-75
2023/04/21 03:37:57;;;;;;;55.55;22.33;;;1.80;99.90;;;;;;5023470;28;20038;-75
2023/04/21 03:40:23;;;;;;;59.40;20.92;;;1.90;99.90;;;;;;5043146;28;20056;-75
2023/04/21 03:42:50;;;;;;;45.95;19.77;;;1.80;99.90;;;;;;5027798;28;20041;-75
2023/04/21 03:45:21;;;;;;;40.13;20.30;;;1.70;99.90;;;;;;5031338;28;20060;-75
2023/04/21 03:47:48;;;;;;;40.42;20.98;;;1.80;99.90;;;;;;5030258;28;20458;-75
2023/04/21 03:50:14;;;;;;;48.55;22.02;;;1.90;99.90;;;;;;5032348;28;20375;-75
2023/04/21 03:52:40;;;;;;;42.00;19.20;;;1.80;99.90;;;;;;5033169;28;20494;-75
2023/04/21 03:55:10;;;;;;;50.30;20.90;;;1.80;99.90;;;;;;5031214;28;20045;-77
2023/04/21 03:57:40;;;;;;;60.80;22.42;;;1.90;99.90;;;;;;5033302;28;20033;-75
2023/04/21 04:00:09;;;;;;;58.25;22.65;;;1.90;99.90;;;;;;5032274;28;20041;-77
2023/04/21 04:02:38;;;;;;;51.03;23.58;;;1.90;99.90;;;;;;5039123;28;20045;-75
2023/04/21 04:05:05;;;;;;;54.15;22.10;;;1.90;99.90;;;;;;5030850;28;20052;-75
2023/04/21 04:07:32;;;;;;;67.97;21.90;;;1.80;99.90;;;;;;5033108;28;20504;-75
2023/04/21 04:09:58;;;;;;;59.53;21.77;;;1.80;99.90;;;;;;5033662;28;20033;-75
2023/04/21 04:12:24;;;;;;;54.10;22.42;;;1.80;99.90;;;;;;5033605;28;20041;-75
2023/04/21 04:14:50;;;;;;;46.00;20.95;;;1.80;99.90;;;;;;5031636;28;20029;-75
2023/04/21 04:17:16;;;;;;;83.35;26.88;;;1.80;99.90;;;;;;5031009;28;20076;-75
2023/04/21 04:19:43;;;;;;;51.35;20.35;;;1.80;99.90;;;;;;5032743;28;20037;-75
2023/04/21 04:22:09;;;;;;;49.70;23.08;;;1.80;99.90;;;;;;5031955;28;20029;-77
2023/04/21 04:24:35;;;;;;;78.22;25.45;;;1.80;99.90;;;;;;5030958;28;20033;-75
2023/04/21 04:27:02;;;;;;;51.30;22.90;;;1.80;99.90;;;;;;5032113;28;20030;-75
2023/04/21 04:29:28;;;;;;;50.78;22.73;;;1.80;99.90;;;;;;5030328;28;20042;-75
2023/04/21 04:31:56;;;;;;;69.07;26.15;;;1.80;99.90;;;;;;5031333;28;20034;-75
2023/04/21 04:34:23;;;;;;;51.10;22.25;;;1.70;99.90;;;;;;5029678;28;20025;-75
2023/04/21 04:36:52;;;;;;;48.67;23.42;;;1.60;99.90;;;;;;5032268;28;20036;-75
2023/04/21 04:39:18;;;;;;;71.00;24.75;;;1.70;99.90;;;;;;5031302;28;20033;-75
2023/04/21 04:41:45;;;;;;;54.83;24.30;;;1.70;99.90;;;;;;5032728;28;20128;-75
2023/04/21 04:44:14;;;;;;;96.03;28.48;;;1.80;99.90;;;;;;5030697;28;20040;-78
2023/04/21 04:46:40;;;;;;;86.18;24.92;;;1.80;99.90;;;;;;5030361;28;20044;-76
2023/04/21 04:49:06;;;;;;;59.38;25.13;;;1.70;99.90;;;;;;5031397;28;20029;-75
2023/04/21 04:51:32;;;;;;;72.65;26.42;;;1.70;99.90;;;;;;5028682;28;20478;-75
2023/04/21 04:53:58;;;;;;;48.83;22.30;;;1.70;99.90;;;;;;5028040;28;20324;-75
2023/04/21 04:56:25;;;;;;;62.33;24.83;;;1.70;99.90;;;;;;5031625;28;20038;-75
2023/04/21 04:58:51;;;;;;;52.13;22.98;;;1.70;99.90;;;;;;5032215;28;20037;-75
2023/04/21 05:01:17;;;;;;;76.75;25.65;;;1.70;99.90;;;;;;5024121;28;20033;-75
2023/04/21 05:03:45;;;;;;;66.45;27.55;;;1.80;99.90;;;;;;5030580;28;20040;-75
2023/04/21 05:06:13;;;;;;;52.72;26.65;;;1.80;99.90;;;;;;5027182;28;20034;-77
2023/04/21 05:08:40;;;;;;;66.47;25.35;;;1.90;99.90;;;;;;5031456;28;20462;-75
2023/04/21 05:11:07;;;;;;;73.57;28.05;;;2.10;99.90;;;;;;5027770;28;20037;-77
2023/04/21 05:13:33;;;;;;;61.33;26.05;;;2.20;99.90;;;;;;5030294;28;20054;-77
2023/04/21 05:16:02;;;;;;;70.40;30.35;;;2.20;99.90;;;;;;5031319;28;20033;-77
2023/04/21 05:18:29;;;;;;;90.47;32.45;;;2.20;99.90;;;;;;5031743;28;20029;-77
2023/04/21 05:20:55;;;;;;;63.42;27.20;;;2.20;99.90;;;;;;5035138;28;20475;-76
2023/04/21 05:23:22;;;;;;;49.42;24.85;;;2.20;99.90;;;;;;5026975;28;20037;-76
2023/04/21 05:25:48;;;;;;;67.88;29.08;;;2.30;99.90;;;;;;5031991;28;20029;-76
2023/04/21 05:28:15;;;;;;;60.78;26.42;;;2.40;99.90;;;;;;5028503;28;20464;-75
2023/04/21 05:30:41;;;;;;;71.43;26.60;;;2.40;99.90;;;;;;5030468;28;20038;-76
2023/04/21 05:33:08;;;;;;;72.97;28.08;;;2.40;99.90;;;;;;5030847;28;20572;-78
2023/04/21 05:35:34;;;;;;;43.88;23.92;;;2.40;99.90;;;;;;5026418;28;20030;-77
2023/04/21 05:38:01;;;;;;;52.15;26.48;;;2.60;99.90;;;;;;5029874;28;20387;-76
2023/04/21 05:40:27;;;;;;;74.95;29.65;;;2.80;99.90;;;;;;5017852;28;20030;-76
2023/04/21 05:42:53;;;;;;;82.53;31.02;;;2.90;99.90;;;;;;5012381;28;20046;-77
2023/04/21 05:45:19;;;;;;;59.17;25.90;;;3.00;99.90;;;;;;5031405;28;20426;-76
2023/04/21 05:47:46;;;;;;;55.20;25.98;;;3.10;99.90;;;;;;5024314;28;20037;-76
2023/04/21 05:50:12;;;;;;;69.68;29.15;;;3.30;99.90;;;;;;5030063;28;20029;-80
2023/04/21 05:52:38;;;;;;;58.83;26.75;;;3.50;99.90;;;;;;5032177;28;20037;-76
2023/04/21 05:55:05;;;;;;;49.65;27.17;;;3.60;99.90;;;;;;5029758;28;20057;-76
2023/04/21 05:57:31;;;;;;;45.72;25.60;;;3.70;99.90;;;;;;5031903;28;20033;-76
2023/04/21 06:00:00;;;;;;;48.70;28.38;;;3.80;99.90;;;;;;5031247;28;20026;-77
2023/04/21 06:02:26;;;;;;;65.25;26.08;;;3.80;99.90;;;;;;5029957;28;20034;-76
2023/04/21 06:04:52;;;;;;;56.58;25.42;;;3.70;99.90;;;;;;5028908;28;20029;-75
2023/04/21 06:07:19;;;;;;;53.88;27.02;;;3.60;99.90;;;;;;5031160;28;20033;-75
2023/04/21 06:09:49;;;;;;;63.05;25.90;;;3.70;99.90;;;;;;5031257;28;20033;-76
2023/04/21 06:12:15;;;;;;;86.88;27.98;;;3.80;99.90;;;;;;5030500;28;20037;-75
2023/04/21 06:14:41;;;;;;;78.32;28.40;;;3.80;99.90;;;;;;5028930;28;20033;-76
2023/04/21 06:17:07;;;;;;;99.38;30.33;;;3.80;99.90;;;;;;5030516;28;20033;-75
2023/04/21 06:19:38;;;;;;;90.25;30.15;;;3.90;99.90;;;;;;5029793;28;20037;-74
2023/04/21 06:22:04;;;;;;;55.67;26.27;;;3.90;99.90;;;;;;5029959;28;20049;-75
2023/04/21 06:24:33;;;;;;;82.10;28.48;;;4.10;99.90;;;;;;5027977;28;20588;-74
2023/04/21 06:27:00;;;;;;;53.55;26.33;;;4.10;99.90;;;;;;5029912;28;20029;-75
2023/04/21 06:29:26;;;;;;;63.38;30.20;;;4.30;99.90;;;;;;5030356;28;20034;-75
2023/04/21 06:31:52;;;;;;;76.38;28.15;;;4.50;99.90;;;;;;5031142;28;20044;-75
2023/04/21 06:34:20;;;;;;;70.70;28.88;;;4.60;99.90;;;;;;5028042;28;20395;-75
2023/04/21 06:36:46;;;;;;;51.97;24.38;;;4.50;99.90;;;;;;5030910;28;20029;-75
2023/04/21 06:39:12;;;;;;;43.65;26.00;;;4.60;99.90;;;;;;5031023;28;20459;-80
2023/04/21 06:41:38;;;;;;;44.25;26.02;;;4.80;99.90;;;;;;5029632;28;20064;-77
2023/04/21 06:44:04;;;;;;;45.55;25.45;;;4.90;99.90;;;;;;5028832;28;20157;-76
2023/04/21 06:46:30;;;;;;;54.22;24.45;;;5.00;99.90;;;;;;5030558;28;20045;-77
2023/04/21 06:48:56;;;;;;;42.20;22.33;;;5.20;99.90;;;;;;5030467;28;20034;-75
2023/04/21 06:51:23;;;;;;;35.78;19.17;;;5.40;99.90;;;;;;5028615;28;20033;-75
2023/04/21 06:53:49;;;;;;;50.22;22.60;;;5.20;99.90;;;;;;5027123;28;20036;-75
2023/04/21 06:56:15;;;;;;;36.50;20.83;;;5.50;99.90;;;;;;5028704;28;20487;-76
2023/04/21 06:58:41;;;;;;;32.22;21.75;;;5.70;99.90;;;;;;5029084;28;20474;-76
2023/04/21 07:01:07;;;;;;;42.50;21.38;;;6.10;99.90;;;;;;5029370;28;20034;-76
2023/04/21 07:03:33;;;;;;;29.27;19.70;;;6.20;99.90;;;;;;5039305;28;20033;-77
2023/04/21 07:06:00;;;;;;;27.75;19.15;;;6.10;99.90;;;;;;5031217;28;20028;-76
2023/04/21 07:08:26;;;;;;;29.05;18.55;;;6.10;99.90;;;;;;5030026;28;20113;-76
2023/04/21 07:10:52;;;;;;;31.55;20.00;;;6.00;99.90;;;;;;5030571;28;20041;-75
2023/04/21 07:13:18;;;;;;;27.45;19.48;;;5.90;99.90;;;;;;5031023;28;20049;-76
2023/04/21 07:15:45;;;;;;;28.50;19.98;;;6.00;99.90;;;;;;5033502;28;20052;-76
2023/04/21 07:18:11;;;;;;;32.10;20.77;;;6.00;99.90;;;;;;5034293;28;20026;-76
2023/04/21 07:20:37;;;;;;;28.02;20.85;;;5.80;99.90;;;;;;5033935;28;20044;-76
2023/04/21 07:23:03;;;;;;;26.13;17.50;;;5.70;99.90;;;;;;5032112;28;20056;-76
2023/04/21 07:25:29;;;;;;;30.65;20.08;;;5.60;99.90;;;;;;5033555;28;20037;-76
2023/04/21 07:27:56;;;;;;;32.70;19.92;;;5.60;99.90;;;;;;5034285;28;20033;-76
2023/04/21 07:30:22;;;;;;;31.65;20.02;;;5.70;99.90;;;;;;5034611;28;20049;-76
2023/04/21 07:32:48;;;;;;;32.63;20.27;;;5.60;99.90;;;;;;5033127;28;20041;-78
2023/04/21 07:35:14;;;;;;;63.97;23.95;;;5.60;99.90;;;;;;5032971;28;20049;-76
2023/04/21 07:37:40;;;;;;;28.48;19.52;;;5.60;99.90;;;;;;5033680;28;20056;-75
2023/04/21 07:40:07;;;;;;;35.78;21.67;;;5.60;99.90;;;;;;5032953;28;20036;-76
2023/04/21 07:42:34;;;;;;;34.25;20.80;;;5.60;99.90;;;;;;5034298;28;20061;-80
2023/04/21 07:45:01;;;;;;;45.35;22.58;;;5.60;99.90;;;;;;5027060;28;20034;-76
2023/04/21 07:47:27;;;;;;;39.88;23.88;;;5.90;99.90;;;;;;5031931;28;20037;-76
2023/04/21 07:49:54;;;;;;;44.53;23.83;;;6.50;99.90;;;;;;5027759;28;20048;-77
2023/04/21 07:52:21;;;;;;;39.75;23.55;;;6.90;99.90;;;;;;5031631;28;20062;-77
2023/04/21 07:54:47;;;;;;;34.92;21.55;;;7.40;99.90;;;;;;5032667;28;20493;-76
2023/04/21 07:57:14;;;;;;;33.28;21.50;;;7.20;99.90;;;;;;5033492;28;20044;-84
2023/04/21 07:59:40;;;;;;;33.90;21.73;;;6.90;99.90;;;;;;5033480;28;20375;-76
2023/04/21 08:02:07;;;;;;;37.45;21.75;;;6.80;99.90;;;;;;5033305;28;20045;-76
2023/04/21 08:04:33;;;;;;;36.95;20.25;;;7.20;99.90;;;;;;5031207;28;20034;-77
2023/04/21 08:06:59;;;;;;;28.90;17.98;;;7.50;92.70;;;;;;5033145;28;20049;-77
2023/04/21 08:09:26;;;;;;;24.55;15.82;;;7.70;39.70;;;;;;5031990;28;20060;-77
2023/04/21 08:11:53;;;;;;;27.48;16.98;;;7.80;4.10;;;;;;5033982;28;20033;-77
2023/04/21 08:14:20;;;;;;;22.25;14.05;;;7.80;1.00;;;;;;5025077;28;20045;-77
2023/04/21 08:16:46;;;;;;;23.02;14.45;;;7.60;1.00;;;;;;5034086;28;20378;-77
2023/04/21 08:19:12;;;;;;;26.23;16.25;;;7.80;1.00;;;;;;5033655;28;20022;-76
2023/04/21 08:21:39;;;;;;;22.63;15.75;;;7.70;1.00;;;;;;5032861;28;20386;-77
2023/04/21 08:24:05;;;;;;;25.83;17.00;;;7.70;1.00;;;;;;5030987;28;20389;-77
2023/04/21 08:26:32;;;;;;;19.15;13.15;;;8.00;1.00;;;;;;5028498;28;20041;-78
2023/04/21 08:28:59;;;;;;;23.23;14.93;;;8.40;1.00;;;;;;5024014;28;20037;-78
2023/04/21 08:31:26;;;;;;;18.88;14.05;;;8.70;1.00;;;;;;5026989;28;20037;-77
2023/04/21 08:33:53;;;;;;;16.67;12.45;;;8.80;1.00;;;;;;5031224;28;20033;-77
2023/04/21 08:36:19;;;;;;;21.38;15.88;;;8.50;1.00;;;;;;5021169;28;20121;-78
2023/04/21 08:38:45;;;;;;;20.23;15.15;;;8.50;1.00;;;;;;5030237;28;20037;-75
2023/04/21 08:41:12;;;;;;;18.77;14.35;;;10.10;1.00;;;;;;5032666;28;20459;-76
2023/04/21 08:43:38;;;;;;;15.95;12.90;;;10.60;1.00;;;;;;5024529;28;20045;-78
2023/04/21 08:46:07;;;;;;;18.67;14.27;;;10.80;1.00;;;;;;5029412;28;20025;-78
2023/04/21 08:48:36;;;;;;;17.85;14.55;;;10.30;99.90;;;;;;5031659;28;20475;-76
2023/04/21 08:51:08;;;;;;;17.60;13.93;;;10.20;1.00;;;;;;5032982;28;20037;-76
2023/04/21 08:53:40;;;;;;;19.88;13.60;;;9.80;1.00;;;;;;5028267;28;20621;-77
2023/04/21 08:56:06;;;;;;;20.38;14.93;;;9.90;1.00;;;;;;5029519;28;20394;-76
2023/04/21 08:58:32;;;;;;;16.05;11.70;;;10.80;1.00;;;;;;5032299;28;20463;-77
2023/04/21 09:00:58;;;;;;;15.48;11.27;;;11.80;99.90;;;;;;5032704;28;20049;-77
2023/04/21 09:03:26;;;;;;;15.93;12.20;;;11.30;99.90;;;;;;5028254;28;20388;-77
2023/04/21 09:06:01;;;;;;;14.32;11.80;;;11.10;99.90;;;;;;5032144;28;20454;-78
2023/04/21 09:08:29;;;;;;;13.48;10.95;;;11.30;99.90;;;;;;5028249;28;20046;-77
2023/04/21 09:10:56;;;;;;;15.98;12.15;;;11.40;99.90;;;;;;5029858;28;20495;-77
2023/04/21 09:13:32;;;;;;;14.60;12.20;;;11.30;99.90;;;;;;5028044;28;20265;-78
2023/04/21 09:15:58;;;;;;;14.48;11.95;;;12.30;99.90;;;;;;5025490;28;20079;-78
2023/04/21 09:18:27;;;;;;;12.35;10.23;;;12.70;99.90;;;;;;5017543;28;20542;-85
2023/04/21 09:21:06;;;;;;;13.50;10.98;;;13.40;99.90;;;;;;5023927;28;20052;-79
2023/04/21 09:23:47;;;;;;;12.80;10.60;;;13.80;99.90;;;;;;5017531;28;20137;-78
2023/04/21 09:26:14;;;;;;;15.32;11.38;;;12.70;99.90;;;;;;5020998;28;20034;-77
2023/04/21 09:28:42;;;;;;;14.82;11.55;;;12.20;99.90;;;;;;5021746;28;20378;-79
2023/04/21 09:31:14;;;;;;;16.48;12.68;;;12.50;99.90;;;;;;5026727;28;20041;-79
2023/04/21 09:33:46;;;;;;;12.88;11.38;;;12.50;99.90;;;;;;5025201;28;20036;-83
2023/04/21 09:36:24;;;;;;;19.75;14.15;;;12.80;99.90;;;;;;5027202;28;20038;-79
2023/04/21 09:38:53;;;;;;;21.00;14.57;;;12.50;99.90;;;;;;5043244;28;20041;-78
2023/04/21 09:41:20;;;;;;;18.42;13.70;;;12.30;99.90;;;;;;5029758;28;20053;-79
2023/04/21 09:43:50;;;;;;;20.20;12.70;;;12.60;99.90;;;;;;5026277;28;20317;-80
2023/04/21 09:46:17;;;;;;;18.55;12.77;;;12.80;99.90;;;;;;5031460;28;20041;-79
2023/04/21 09:48:45;;;;;;;16.58;13.15;;;12.60;99.90;;;;;;5030387;28;20037;-77
2023/04/21 09:51:13;;;;;;;18.13;12.77;;;12.80;99.90;;;;;;5031904;28;20033;-78
2023/04/21 09:53:41;;;;;;;17.50;12.38;;;12.70;99.90;;;;;;5030078;28;20030;-77
2023/04/21 09:56:11;;;;;;;15.07;11.75;;;12.80;99.90;;;;;;5028811;28;20034;-77
2023/04/21 09:58:46;;;;;;;15.00;11.18;;;13.90;99.90;;;;;;5028403;28;20041;-76
2023/04/21 10:01:13;;;;;;;16.30;13.15;;;15.70;23.20;;;;;;5031730;28;20033;-77
2023/04/21 10:03:41;;;;;;;14.75;11.30;;;16.00;1.00;;;;;;5030594;28;20353;-77
2023/04/21 10:06:07;;;;;;;13.13;10.43;;;14.30;70.50;;;;;;5031319;28;20033;-78
2023/04/21 10:08:35;;;;;;;15.10;12.27;;;14.20;99.90;;;;;;5030918;28;20045;-78
2023/04/21 10:11:02;;;;;;;12.88;10.68;;;14.10;99.90;;;;;;5031686;28;20036;-78
2023/04/21 10:13:29;;;;;;;11.70;9.38;;;14.10;99.90;;;;;;5029934;28;20029;-82
2023/04/21 10:16:03;;;;;;;13.68;10.40;;;13.50;99.90;;;;;;5028866;28;20037;-78
2023/04/21 10:18:30;;;;;;;12.73;8.88;;;13.50;99.90;;;;;;5030999;28;20033;-77
2023/04/21 10:21:10;;;;;;;11.15;8.80;;;13.10;99.90;;;;;;5019467;28;20030;-77
2023/04/21 10:23:42;;;;;;;12.80;9.52;;;13.30;99.90;;;;;;5028340;28;20038;-78
2023/04/21 10:26:24;;;;;;;10.52;7.70;;;13.20;99.90;;;;;;5030514;28;20030;-76
2023/04/21 10:28:55;;;;;;;9.82;7.65;;;13.10;99.90;;;;;;5026367;28;20033;-77
2023/04/21 10:31:29;;;;;;;10.20;7.35;;;13.30;99.90;;;;;;5024062;28;20467;-81
2023/04/21 10:34:07;;;;;;;10.88;7.25;;;13.40;99.90;;;;;;5026992;28;20370;-77
2023/04/21 10:36:45;;;;;;;9.30;6.68;;;13.60;99.90;;;;;;5030932;28;20029;-77
2023/04/21 10:39:25;;;;;;;9.02;7.00;;;13.70;99.90;;;;;;5027841;28;20048;-77
2023/04/21 10:41:55;;;;;;;9.52;7.07;;;13.70;99.90;;;;;;5024237;28;20057;-77
2023/04/21 10:44:21;;;;;;;10.00;7.05;;;13.70;99.90;;;;;;5022233;28;20038;-78
2023/04/21 10:46:48;;;;;;;8.93;5.85;;;13.80;99.90;;;;;;5030958;28;20038;-77
2023/04/21 10:49:25;;;;;;;9.50;6.68;;;14.40;99.90;;;;;;5027168;28;20033;-77
2023/04/21 10:52:01;;;;;;;8.50;6.55;;;14.80;88.70;;;;;;5030760;28;20029;-76
2023/04/21 10:54:32;;;;;;;7.55;5.53;;;15.00;77.20;;;;;;5028458;28;20414;-76
2023/04/21 10:56:58;;;;;;;7.30;5.38;;;15.20;54.90;;;;;;5030250;28;20367;-76
2023/04/21 10:59:27;;;;;;;9.20;6.30;;;15.20;62.70;;;;;;5028365;28;20034;-76
2023/04/21 11:01:54;;;;;;;8.57;6.22;;;15.20;79.30;;;;;;5030046;28;20037;-75
2023/04/21 11:04:21;;;;;;;11.07;5.50;;;15.30;32.00;;;;;;5028297;28;20041;-86
2023/04/21 11:07:10;;;;;;;7.88;5.53;;;15.00;57.10;;;;;;5031463;28;20390;-78
2023/04/21 11:09:38;;;;;;;8.52;6.22;;;14.90;82.40;;;;;;5023901;28;20060;-75
2023/04/21 11:12:06;;;;;;;6.45;5.25;;;15.40;46.40;;;;;;5031080;28;20041;-75
2023/04/21 11:14:35;;;;;;;7.45;5.63;;;15.60;46.20;;;;;;5024251;28;20036;-75
2023/04/21 11:17:09;;;;;;;8.57;6.35;;;15.70;1.00;;;;;;5028911;28;20033;-76
2023/04/21 11:19:36;;;;;;;7.68;5.03;;;15.80;1.00;;;;;;5020234;28;20383;-76
2023/04/21 11:22:04;;;;;;;6.78;4.40;;;16.00;1.00;;;;;;5030805;28;20033;-78
2023/04/21 11:24:31;;;;;;;6.55;4.82;;;16.30;1.00;;;;;;5028861;28;20390;-77
2023/04/21 11:26:57;;;;;;;7.18;6.25;;;16.50;1.00;;;;;;5028299;28;20037;-76
2023/04/21 11:29:23;;;;;;;7.25;5.25;;;16.20;1.00;;;;;;5024306;28;20025;-76
2023/04/21 11:31:52;;;;;;;7.82;5.28;;;16.30;1.00;;;;;;5024452;28;20037;-75
2023/04/21 11:34:23;;;;;;;8.00;5.65;;;16.50;1.00;;;;;;5022119;28;20053;-76
2023/04/21 11:36:50;;;;;;;7.82;5.75;;;16.60;1.00;;;;;;5023413;28;20033;-74
2023/04/21 11:39:18;;;;;;;8.57;5.40;;;16.40;1.00;;;;;;5022807;28;20398;-75
2023/04/21 11:41:47;;;;;;;8.77;5.70;;;16.30;1.00;;;;;;5025136;28;20511;-75
2023/04/21 11:44:30;;;;;;;6.82;5.22;;;16.40;1.00;;;;;;5019552;28;20037;-75
2023/04/21 11:46:57;;;;;;;7.63;5.18;;;17.00;1.00;;;;;;5024490;28;20037;-76
2023/04/21 11:49:30;;;;;;;8.70;5.28;;;17.50;1.00;;;;;;5023185;28;20037;-85
2023/04/21 11:51:57;;;;;;;8.55;5.80;;;17.30;1.00;;;;;;5026980;28;20033;-77
2023/04/21 11:54:23;;;;;;;7.00;5.65;;;17.50;1.00;;;;;;5028276;28;20033;-85
2023/04/21 11:56:50;;;;;;;9.55;6.35;;;17.30;1.00;;;;;;5030331;28;20037;-75
2023/04/21 11:59:22;;;;;;;9.57;6.53;;;17.20;1.00;;;;;;5027362;28;20056;-76
2023/04/21 12:01:51;;;;;;;8.02;5.20;;;17.10;1.00;;;;;;5034136;28;20044;-75
2023/04/21 12:04:18;;;;;;;7.47;5.18;;;17.00;1.00;;;;;;5028554;28;20144;-75
2023/04/21 12:06:46;;;;;;;8.63;6.25;;;17.30;1.00;;;;;;5032515;28;20046;-76
2023/04/21 12:09:17;;;;;;;8.15;6.07;;;17.50;1.00;;;;;;5033209;28;20383;-76
2023/04/21 12:11:47;;;;;;;8.43;6.53;;;17.30;1.00;;;;;;5031636;28;20686;-75
2023/04/21 12:14:15;;;;;;;6.00;5.28;;;17.20;1.00;;;;;;5030627;28;20056;-75
2023/04/21 12:16:41;;;;;;;8.27;6.00;;;17.30;1.00;;;;;;5032400;28;20379;-74
2023/04/21 12:19:08;;;;;;;9.23;5.82;;;17.60;1.00;;;;;;5024402;28;20463;-76
2023/04/21 12:21:38;;;;;;;7.07;5.55;;;17.60;1.00;;;;;;5031722;28;20033;-76
2023/04/21 12:24:05;;;;;;;9.48;6.13;;;17.90;1.00;;;;;;5028163;28;20037;-76
2023/04/21 12:26:31;;;;;;;8.35;6.30;;;18.10;1.00;;;;;;5029569;28;20364;-75
2023/04/21 12:28:59;;;;;;;9.05;6.65;;;18.10;1.00;;;;;;5021047;28;20391;-77
2023/04/21 12:31:26;;;;;;;8.15;4.72;;;17.80;1.00;;;;;;5031732;28;20052;-88
2023/04/21 12:33:52;;;;;;;7.07;4.40;;;18.10;1.00;;;;;;5032013;28;20030;-77
2023/04/21 12:36:18;;;;;;;6.30;3.90;;;18.40;1.00;;;;;;5033545;28;20029;-76
2023/04/21 12:38:44;;;;;;;8.00;5.40;;;18.60;1.00;;;;;;5028601;28;20049;-77
2023/04/21 12:41:10;;;;;;;6.90;4.72;;;18.80;1.00;;;;;;5029082;28;20414;-77